Hauptseite
METAR-TAF:

METAR-TAF

Flughäfen :

Beirut, Libanon

Breite: 33-49N, Länge: 035-29E, Höhe: 29 m

Beobachtung

Neuester Wetterbericht von vor 35 Minuten, um 12:00 UTC
Wind 9 kt aus West/Südwest
Temperatur 30°C
Luftfeuchtigkeit 62%
Luftdruck 1010 hPa
Sichtweite: 8000 m
Leicht bewölkt in der Höhe von 2700 ft

METAR: OLBA 161200Z 25009KT 8000 FEW027 30/22 Q1010 NOSIG

Zeit: 15:35 (12:35 UTC)

Prognose

Neuester Wetterbericht von vor 2 Stunden und 35 Minuten, um 10:00 UTC
Gültige Prognose vom 16 um 12 UTC bis 17 um 18 UTC
Wind 12 kt aus West/Südwest
Sichtweite: 8000 m
Aufgelockert bewölkt in der Höhe von 2600 ft
Zeitweise
vom 16 um 18 UTC bis 17 um 06 UTC
Sichtweite: 5000 m
feuchter Dunst

TAF: OLBA 161000Z 1612/1718 24012KT 8000 SCT026 TEMPO 1618/1706 5000 BR

Wetterbeobachtungen und Prognosen von mehr als 4000 Flughäfen (METAR und TAF Bericht).

Die verfügbaren Stationen werden durch gelbe und rote Markierungen auf der Karte dargestellt.

Führen Sie die Maus auf sie, um den Namen der Station zu sehen.

Darauf klicken, um die Beobachtung von Wetterbeobachtungen und Prognosen zu sehen.

Um die Karte zu ändern : klicken Sie auf den grünen Tasten mit einem schwarzen Kreuz Zum Vergrößern, auf den grünen Button mit einem Gedankenstrich zu verkleinern, oder auf die grünen Pfeile für benachbarte Karten.


METAR-TAF: